Time;durP1;ratioP1;P1;durP2;ratioP2;P2;SDS_P1;SDS_P2;PMS_P1;PMS_P2;Temp;Humidity;BMP_temperature;BMP_pressure;BME280_temperature;BME280_humidity;BME280_pressure;Samples;Min_cycle;Max_cycle;Signal;HPM_P1;HPM_P2
2022/06/09 00:02:03;;;;;;;35.28;15.88;;;15.10;99.90;;;;;;5087635;28;20059;-77
2022/06/09 00:04:36;;;;;;;40.67;17.65;;;15.00;99.90;;;;;;5071028;28;20513;-77
2022/06/09 00:07:05;;;;;;;44.87;17.00;;;15.00;99.90;;;;;;5071170;28;20103;-77
2022/06/09 00:09:41;;;;;;;34.00;17.02;;;15.00;99.90;;;;;;5070976;28;20279;-77
2022/06/09 00:12:07;;;;;;;34.60;15.30;;;15.00;99.90;;;;;;5070589;28;20055;-77
2022/06/09 00:14:33;;;;;;;32.42;14.70;;;15.00;99.90;;;;;;5069919;28;20040;-77
2022/06/09 00:16:59;;;;;;;36.30;16.50;;;15.00;99.90;;;;;;5070627;28;20068;-77
2022/06/09 00:19:25;;;;;;;38.72;15.77;;;15.10;99.90;;;;;;5070921;28;20071;-77
2022/06/09 00:21:51;;;;;;;32.00;14.70;;;15.00;99.90;;;;;;5051358;28;20045;-77
2022/06/09 00:24:17;;;;;;;37.97;15.07;;;15.00;99.90;;;;;;5050889;28;20502;-78
2022/06/09 00:26:43;;;;;;;38.25;15.38;;;15.00;99.90;;;;;;5050999;28;20406;-77
2022/06/09 00:29:09;;;;;;;31.67;15.02;;;15.10;99.90;;;;;;5050653;28;20036;-78
2022/06/09 00:31:35;;;;;;;31.58;15.10;;;15.00;99.90;;;;;;5050166;28;20048;-79
2022/06/09 00:34:00;;;;;;;32.78;15.38;;;15.00;99.90;;;;;;5067498;28;20581;-77
2022/06/09 00:36:26;;;;;;;33.78;13.82;;;15.00;99.90;;;;;;5056391;28;20098;-77
2022/06/09 00:38:52;;;;;;;27.58;13.40;;;15.00;99.90;;;;;;5050642;28;20407;-77
2022/06/09 00:41:17;;;;;;;31.50;15.15;;;15.00;99.90;;;;;;5059195;28;20123;-77
2022/06/09 00:43:44;;;;;;;31.98;14.35;;;15.00;99.90;;;;;;5060655;28;20037;-78
2022/06/09 00:46:10;;;;;;;28.27;13.27;;;15.00;99.90;;;;;;5050667;28;20067;-77
2022/06/09 00:49:08;;;;;;;41.05;15.02;;;15.00;99.90;;;;;;5050445;28;20036;-77
2022/06/09 00:51:44;;;;;;;30.08;14.82;;;15.00;99.90;;;;;;5032933;28;20053;-77
2022/06/09 00:54:24;;;;;;;29.98;14.10;;;15.00;99.90;;;;;;5050655;28;20059;-77
2022/06/09 00:56:55;;;;;;;27.60;14.13;;;14.90;99.90;;;;;;5050358;28;20506;-77
2022/06/09 00:59:26;;;;;;;27.00;14.45;;;14.90;99.90;;;;;;5050605;28;20047;-77
2022/06/09 01:01:53;;;;;;;32.35;14.80;;;15.00;99.90;;;;;;5049943;28;20037;-78
2022/06/09 01:04:20;;;;;;;41.47;15.43;;;14.90;99.90;;;;;;5050320;28;20506;-77
2022/06/09 01:06:52;;;;;;;35.00;15.35;;;14.90;99.90;;;;;;5050124;28;20036;-78
2022/06/09 01:09:22;;;;;;;36.67;15.80;;;15.00;99.90;;;;;;5050325;28;20041;-77
2022/06/09 01:11:52;;;;;;;31.25;14.05;;;14.90;99.90;;;;;;5049841;28;20426;-78
2022/06/09 01:14:23;;;;;;;33.83;13.85;;;14.90;99.90;;;;;;5033926;28;20037;-77
2022/06/09 01:17:07;;;;;;;39.85;16.85;;;14.90;99.90;;;;;;5050379;28;20059;-77
2022/06/09 01:20:04;;;;;;;30.85;14.88;;;14.90;99.90;;;;;;5050151;28;20040;-77
2022/06/09 01:22:47;;;;;;;32.80;15.60;;;14.90;99.90;;;;;;5051501;28;20048;-77
2022/06/09 01:25:16;;;;;;;;;;;14.90;99.90;;;;;;5033976;28;20048;-77
2022/06/09 01:28:19;;;;;;;39.15;15.77;;;14.80;99.90;;;;;;5049976;28;19923;-77
2022/06/09 01:30:56;;;;;;;41.88;17.60;;;14.80;99.90;;;;;;5049802;28;20495;-77
2022/06/09 01:33:32;;;;;;;48.78;18.20;;;14.80;99.90;;;;;;5050337;28;20166;-77
2022/06/09 01:36:26;;;;;;;40.63;16.05;;;14.80;99.90;;;;;;5050005;28;20043;-77
2022/06/09 01:38:56;;;;;;;35.08;17.10;;;14.80;99.90;;;;;;5011812;28;20048;-78
2022/06/09 01:41:23;;;;;;;35.75;16.75;;;14.80;99.90;;;;;;5049519;28;20041;-78
2022/06/09 01:43:51;;;;;;;36.72;16.98;;;14.80;99.90;;;;;;5049870;28;20068;-77
2022/06/09 01:46:32;;;;;;;34.55;16.17;;;14.80;99.90;;;;;;5033565;28;20072;-77
2022/06/09 01:49:04;;;;;;;41.47;16.88;;;14.80;99.90;;;;;;5050171;28;20049;-77
2022/06/09 01:51:36;;;;;;;35.90;16.27;;;14.80;99.90;;;;;;5049649;28;20118;-77
2022/06/09 01:54:25;;;;;;;46.83;17.40;;;14.80;99.90;;;;;;5053619;28;20087;-77
2022/06/09 01:56:56;;;;;;;38.58;16.83;;;14.80;99.90;;;;;;5053608;28;20280;-77
2022/06/09 01:59:41;;;;;;;36.25;18.30;;;14.80;99.90;;;;;;5053479;28;20394;-77
2022/06/09 02:02:34;;;;;;;48.42;19.75;;;14.80;99.90;;;;;;5053119;28;20036;-77
2022/06/09 02:05:03;;;;;;;43.80;18.05;;;14.70;99.90;;;;;;5036249;28;20053;-77
2022/06/09 02:07:32;;;;;;;42.28;19.02;;;14.80;99.90;;;;;;5053354;28;20037;-77
2022/06/09 02:09:57;;;;;;;43.72;18.63;;;14.70;99.90;;;;;;5036366;28;20052;-77
2022/06/09 02:12:27;;;;;;;47.72;18.88;;;14.70;99.90;;;;;;5054386;28;20041;-77
2022/06/09 02:14:55;;;;;;;38.30;18.50;;;14.70;99.90;;;;;;5053173;28;20072;-77
2022/06/09 02:17:21;;;;;;;44.88;20.48;;;14.70;99.90;;;;;;5036708;28;20044;-77
2022/06/09 02:19:48;;;;;;;43.00;20.63;;;14.70;99.90;;;;;;5052899;28;20033;-77
2022/06/09 02:22:14;;;;;;;41.72;19.40;;;14.70;99.90;;;;;;5052947;28;20498;-77
2022/06/09 02:24:40;;;;;;;53.72;21.73;;;14.70;99.90;;;;;;5053000;28;20041;-77
2022/06/09 02:27:06;;;;;;;45.42;20.88;;;14.70;99.90;;;;;;5052971;28;20041;-77
2022/06/09 02:29:32;;;;;;;49.13;22.52;;;14.70;99.90;;;;;;5036310;28;20036;-77
2022/06/09 02:31:58;;;;;;;57.30;23.45;;;14.60;99.90;;;;;;5052423;28;20052;-77
2022/06/09 02:34:23;;;;;;;51.00;22.67;;;14.70;99.90;;;;;;5053978;28;20396;-77
2022/06/09 02:36:49;;;;;;;45.15;21.95;;;14.70;99.90;;;;;;5052709;28;20040;-78
2022/06/09 02:39:15;;;;;;;45.05;21.35;;;14.70;99.90;;;;;;5052983;28;20469;-77
2022/06/09 02:41:40;;;;;;;41.05;22.08;;;14.70;99.90;;;;;;5035686;28;20094;-77
2022/06/09 02:44:06;;;;;;;46.63;22.98;;;14.70;99.90;;;;;;5036026;28;20062;-77
2022/06/09 02:46:32;;;;;;;41.83;20.60;;;14.60;99.90;;;;;;5035997;28;20451;-77
2022/06/09 02:48:58;;;;;;;44.83;21.13;;;14.60;99.90;;;;;;5052411;28;20049;-77
2022/06/09 02:51:31;;;;;;;47.75;21.05;;;14.60;99.90;;;;;;5052052;28;20076;-77
2022/06/09 02:54:00;;;;;;;47.38;21.17;;;14.60;99.90;;;;;;5035865;28;20082;-77
2022/06/09 02:56:26;;;;;;;41.15;20.45;;;14.60;99.90;;;;;;5052283;28;20040;-79
2022/06/09 02:58:53;;;;;;;39.50;20.27;;;14.60;99.90;;;;;;5035715;28;20060;-78
2022/06/09 03:01:19;;;;;;;46.17;21.92;;;14.60;99.90;;;;;;5051925;28;20064;-77
2022/06/09 03:03:45;;;;;;;44.25;21.17;;;14.60;99.90;;;;;;5051459;28;20139;-77
2022/06/09 03:06:11;;;;;;;53.63;21.48;;;14.60;99.90;;;;;;5052401;28;20144;-77
2022/06/09 03:08:37;;;;;;;43.50;21.33;;;14.50;99.90;;;;;;5052144;28;20047;-77
2022/06/09 03:11:03;;;;;;;48.10;21.55;;;14.50;99.90;;;;;;5051693;28;20044;-77
2022/06/09 03:13:30;;;;;;;45.55;21.70;;;14.50;99.90;;;;;;5053404;28;20062;-77
2022/06/09 03:15:55;;;;;;;38.05;20.02;;;14.50;99.90;;;;;;5052297;28;20040;-77
2022/06/09 03:18:21;;;;;;;46.70;22.00;;;14.50;99.90;;;;;;5052251;28;20045;-77
2022/06/09 03:20:47;;;;;;;46.88;21.65;;;14.50;99.90;;;;;;5051548;28;20037;-77
2022/06/09 03:23:13;;;;;;;45.47;22.60;;;14.50;99.90;;;;;;5035320;28;20056;-77
2022/06/09 03:25:39;;;;;;;51.15;21.25;;;14.50;99.90;;;;;;5051761;28;20048;-77
2022/06/09 03:28:06;;;;;;;47.22;22.85;;;14.50;99.90;;;;;;5053116;28;20041;-77
2022/06/09 03:30:32;;;;;;;49.67;22.42;;;14.40;99.90;;;;;;5051290;28;20090;-77
2022/06/09 03:32:58;;;;;;;49.45;23.10;;;14.40;99.90;;;;;;5051937;28;20505;-77
2022/06/09 03:35:24;;;;;;;51.85;23.88;;;14.40;99.90;;;;;;5035035;28;20502;-77
2022/06/09 03:37:50;;;;;;;51.70;23.45;;;14.40;99.90;;;;;;5051585;28;20120;-77
2022/06/09 03:40:18;;;;;;;54.60;24.13;;;14.40;99.90;;;;;;5051255;28;20037;-77
2022/06/09 03:42:43;;;;;;;56.47;22.10;;;14.40;99.90;;;;;;5051743;28;20102;-77
2022/06/09 03:45:10;;;;;;;55.45;25.85;;;14.40;99.90;;;;;;5051433;28;20072;-77
2022/06/09 03:47:36;;;;;;;54.50;23.42;;;14.50;99.90;;;;;;5051696;28;20502;-77
2022/06/09 03:50:02;;;;;;;59.65;23.98;;;14.50;99.90;;;;;;5051393;28;20039;-77
2022/06/09 03:52:27;;;;;;;50.45;23.55;;;14.40;99.90;;;;;;5051205;28;20494;-77
2022/06/09 03:54:53;;;;;;;53.42;23.48;;;14.50;99.90;;;;;;5051251;28;20037;-78
2022/06/09 03:57:18;;;;;;;49.30;23.55;;;14.50;99.90;;;;;;5035068;28;20082;-77
2022/06/09 03:59:44;;;;;;;57.17;24.75;;;14.40;99.90;;;;;;5051185;28;20037;-77
2022/06/09 04:02:10;;;;;;;50.40;23.17;;;14.40;99.90;;;;;;5051155;28;20041;-77
2022/06/09 04:04:36;;;;;;;45.25;24.92;;;14.40;99.90;;;;;;5051239;28;20041;-77
2022/06/09 04:07:02;;;;;;;50.08;24.83;;;14.50;99.90;;;;;;5051019;28;20037;-77
2022/06/09 04:09:27;;;;;;;54.08;26.17;;;14.50;99.90;;;;;;5051044;28;20476;-78
2022/06/09 04:11:53;;;;;;;58.08;26.08;;;14.50;99.90;;;;;;5050610;28;20450;-77
2022/06/09 04:14:18;;;;;;;56.63;26.13;;;14.50;99.90;;;;;;5051193;28;20163;-78
2022/06/09 04:16:44;;;;;;;54.92;23.15;;;14.50;99.90;;;;;;5050692;28;20040;-77
2022/06/09 04:19:13;;;;;;;61.97;26.13;;;14.50;99.90;;;;;;5034623;28;20087;-77
2022/06/09 04:21:39;;;;;;;59.38;27.25;;;14.60;99.90;;;;;;5050775;28;20037;-77
2022/06/09 04:24:05;;;;;;;53.67;27.35;;;14.50;99.90;;;;;;5051060;28;20044;-77
2022/06/09 04:26:35;;;;;;;52.30;26.58;;;14.50;99.90;;;;;;5051073;28;20116;-77
2022/06/09 04:29:01;;;;;;;58.17;28.90;;;14.50;99.90;;;;;;5050768;28;20531;-78
2022/06/09 04:31:26;;;;;;;51.83;28.08;;;14.50;99.90;;;;;;5050246;28;20084;-77
2022/06/09 04:33:52;;;;;;;56.67;27.08;;;14.60;99.90;;;;;;5050596;28;20037;-78
2022/06/09 04:36:19;;;;;;;57.97;28.30;;;14.60;99.90;;;;;;5050625;28;20083;-78
2022/06/09 04:38:45;;;;;;;50.83;28.05;;;14.60;99.90;;;;;;5050859;28;20053;-77
2022/06/09 04:41:13;;;;;;;54.83;29.05;;;14.60;99.90;;;;;;5050149;28;20451;-77
2022/06/09 04:43:44;;;;;;;51.70;26.00;;;14.70;99.90;;;;;;5050987;28;20036;-77
2022/06/09 04:46:12;;;;;;;49.95;26.48;;;14.60;99.90;;;;;;5033959;28;20052;-80
2022/06/09 04:48:38;;;;;;;49.60;26.63;;;14.70;99.90;;;;;;5050579;28;20041;-77
2022/06/09 04:51:10;;;;;;;49.60;25.60;;;14.70;99.90;;;;;;5049987;28;20045;-78
2022/06/09 04:53:38;;;;;;;45.85;27.02;;;14.70;99.90;;;;;;5050407;28;20526;-78
2022/06/09 04:56:04;;;;;;;53.88;26.88;;;14.70;99.90;;;;;;5059747;28;20032;-78
2022/06/09 04:58:30;;;;;;;41.55;24.05;;;14.80;99.90;;;;;;5070303;28;20062;-77
2022/06/09 05:00:55;;;;;;;50.55;25.95;;;14.70;99.90;;;;;;5069703;28;20080;-77
2022/06/09 05:03:21;;;;;;;41.45;25.65;;;14.80;99.90;;;;;;5055413;28;20037;-78
2022/06/09 05:05:48;;;;;;;43.35;24.60;;;14.80;99.90;;;;;;5067733;28;20059;-77
2022/06/09 05:08:15;;;;;;;50.33;26.35;;;14.70;99.90;;;;;;5050508;28;20510;-77
2022/06/09 05:10:43;;;;;;;49.38;26.45;;;14.80;99.90;;;;;;5049737;28;20064;-78
2022/06/09 05:13:09;;;;;;;54.47;27.02;;;14.80;99.90;;;;;;5050235;28;20138;-78
2022/06/09 05:15:46;;;;;;;45.55;26.73;;;14.70;99.90;;;;;;5050216;28;20259;-79
2022/06/09 05:18:12;;;;;;;39.75;24.30;;;14.70;99.90;;;;;;5068390;28;20278;-77
2022/06/09 05:20:38;;;;;;;47.38;27.45;;;14.70;99.90;;;;;;5052574;28;20621;-77
2022/06/09 05:23:03;;;;;;;47.47;26.73;;;14.60;99.90;;;;;;5050046;28;20079;-78
2022/06/09 05:25:29;;;;;;;46.35;25.73;;;14.60;99.90;;;;;;5050081;28;20091;-78
2022/06/09 05:27:54;;;;;;;46.70;25.92;;;14.60;99.90;;;;;;5052158;28;20043;-78
2022/06/09 05:30:23;;;;;;;47.50;27.40;;;14.60;99.90;;;;;;5053871;28;20045;-77
2022/06/09 05:32:49;;;;;;;42.45;25.63;;;14.60;99.90;;;;;;5053953;28;20072;-77
2022/06/09 05:35:15;;;;;;;47.47;26.00;;;14.60;99.90;;;;;;5055372;28;20194;-78
2022/06/09 05:45:56;;;;;;;46.90;25.20;;;14.70;99.90;;;;;;5073770;28;20048;-78
2022/06/09 05:48:22;;;;;;;49.90;26.42;;;14.70;99.90;;;;;;5073541;28;20040;-78
2022/06/09 05:50:49;;;;;;;46.72;25.77;;;14.70;99.90;;;;;;5073009;28;20099;-78
2022/06/09 05:53:14;;;;;;;48.05;27.08;;;14.70;99.90;;;;;;5073611;28;20449;-78
2022/06/09 05:55:40;;;;;;;42.40;24.80;;;14.80;99.90;;;;;;5073978;28;20037;-78
2022/06/09 05:58:06;;;;;;;44.38;25.13;;;14.90;99.90;;;;;;5073481;28;20485;-79
2022/06/09 06:00:31;;;;;;;46.47;24.45;;;15.00;99.90;;;;;;5056419;28;20040;-79
2022/06/09 06:02:57;;;;;;;42.80;25.58;;;15.10;99.90;;;;;;5056941;28;20063;-78
2022/06/09 06:08:07;;;;;;;42.63;24.98;;;15.20;99.90;;;;;;5074461;28;20049;-78
2022/06/09 06:10:33;;;;;;;39.05;25.00;;;15.30;99.90;;;;;;5056231;28;20044;-77
2022/06/09 06:12:59;;;;;;;42.00;25.05;;;15.30;99.90;;;;;;5073282;28;20498;-77
2022/06/09 06:15:24;;;;;;;41.88;25.02;;;15.40;99.90;;;;;;5074446;28;20123;-78
2022/06/09 06:17:54;;;;;;;38.45;24.70;;;15.30;99.90;;;;;;5073206;28;20550;-78
2022/06/09 06:20:20;;;;;;;43.28;24.92;;;15.20;99.90;;;;;;5072681;28;20387;-78
2022/06/09 06:22:45;;;;;;;40.60;23.10;;;15.10;99.90;;;;;;5073081;28;20037;-78
2022/06/09 06:25:11;;;;;;;39.97;25.20;;;15.00;99.90;;;;;;5073119;28;20048;-77
2022/06/09 06:27:37;;;;;;;36.90;23.50;;;15.10;99.90;;;;;;5072971;28;20036;-78
2022/06/09 06:30:03;;;;;;;41.35;25.63;;;15.00;99.90;;;;;;5072744;28;20083;-78
2022/06/09 06:32:28;;;;;;;44.65;26.65;;;15.10;99.90;;;;;;5072759;28;20045;-77
2022/06/09 06:34:57;;;;;;;43.15;26.00;;;15.10;99.90;;;;;;5072810;28;20036;-79
2022/06/09 06:37:23;;;;;;;38.55;25.45;;;15.10;99.90;;;;;;5056313;28;20410;-77
2022/06/09 06:39:49;;;;;;;44.95;25.92;;;15.20;99.90;;;;;;5073027;28;20079;-77
2022/06/09 06:42:15;;;;;;;33.08;22.88;;;15.40;99.90;;;;;;5056030;28;20044;-78
2022/06/09 06:44:41;;;;;;;32.92;23.40;;;15.70;99.90;;;;;;5072879;28;20094;-78
2022/06/09 06:47:06;;;;;;;32.70;22.30;;;16.00;99.90;;;;;;5072818;28;20076;-79
2022/06/09 06:49:32;;;;;;;32.40;22.23;;;16.20;99.90;;;;;;5056052;28;20079;-77
2022/06/09 06:51:58;;;;;;;28.98;21.35;;;16.20;99.90;;;;;;5072129;28;20105;-76
2022/06/09 06:54:23;;;;;;;32.55;22.08;;;16.30;99.90;;;;;;5072461;28;20119;-78
2022/06/09 06:56:49;;;;;;;28.42;20.52;;;16.30;99.90;;;;;;5055804;28;20036;-79
2022/06/09 06:59:14;;;;;;;26.80;18.83;;;16.40;99.90;;;;;;5072324;28;20040;-77
2022/06/09 07:01:40;;;;;;;31.75;20.73;;;16.40;99.90;;;;;;5071965;28;20041;-78
2022/06/09 07:04:05;;;;;;;27.63;20.63;;;16.50;99.90;;;;;;5072325;28;20042;-78
2022/06/09 07:06:31;;;;;;;26.67;19.42;;;16.60;99.90;;;;;;5072268;28;20036;-78
2022/06/09 07:08:57;;;;;;;32.45;21.65;;;16.50;99.90;;;;;;5072180;28;20075;-78
2022/06/09 07:11:22;;;;;;;23.45;17.55;;;16.50;99.90;;;;;;5055225;28;20463;-77
2022/06/09 07:13:49;;;;;;;27.98;19.80;;;16.40;99.90;;;;;;5072012;28;20037;-78
2022/06/09 07:16:15;;;;;;;28.15;19.20;;;16.50;99.90;;;;;;5073484;28;20107;-78
2022/06/09 07:18:41;;;;;;;26.35;18.45;;;16.60;99.90;;;;;;5073434;28;20098;-78
2022/06/09 07:21:07;;;;;;;22.27;16.08;;;16.50;99.90;;;;;;5072517;28;20037;-78
2022/06/09 07:23:33;;;;;;;20.65;16.17;;;16.70;99.90;;;;;;5088123;28;20040;-78
2022/06/09 07:26:00;;;;;;;19.55;15.77;;;16.70;99.90;;;;;;5071499;28;20094;-78
2022/06/09 07:28:26;;;;;;;21.25;17.15;;;17.00;99.90;;;;;;5071654;28;20032;-78
2022/06/09 07:30:56;;;;;;;21.88;17.00;;;17.50;99.90;;;;;;5074663;28;20044;-78
2022/06/09 07:33:28;;;;;;;19.67;14.70;;;17.50;99.90;;;;;;5108507;28;20032;-78
2022/06/09 07:35:56;;;;;;;19.17;14.60;;;17.40;99.90;;;;;;5075295;28;20057;-77
2022/06/09 07:38:23;;;;;;;19.52;14.48;;;17.50;99.90;;;;;;5073755;28;20105;-77
2022/06/09 07:40:49;;;;;;;18.13;13.63;;;17.90;99.90;;;;;;5073117;28;20036;-78
2022/06/09 07:43:15;;;;;;;18.25;12.98;;;18.20;99.90;;;;;;5071549;28;20538;-77
2022/06/09 07:45:41;;;;;;;13.65;11.13;;;18.20;99.90;;;;;;5071762;28;20036;-78
2022/06/09 07:48:07;;;;;;;14.10;11.57;;;18.10;99.90;;;;;;5072053;28;20071;-77
2022/06/09 07:50:34;;;;;;;13.73;10.00;;;18.10;99.90;;;;;;5070354;28;20047;-78
2022/06/09 07:53:00;;;;;;;11.57;9.43;;;18.40;99.90;;;;;;5071417;28;20076;-78
2022/06/09 07:55:26;;;;;;;12.50;8.88;;;18.80;99.90;;;;;;5071729;28;20098;-78
2022/06/09 07:57:53;;;;;;;10.85;7.88;;;19.20;99.90;;;;;;5071218;28;20040;-78
2022/06/09 08:00:20;;;;;;;10.23;7.63;;;19.20;99.90;;;;;;5070931;28;20036;-78
2022/06/09 08:02:46;;;;;;;8.68;6.18;;;19.40;99.90;;;;;;5071222;28;20037;-78
2022/06/09 08:05:14;;;;;;;10.25;7.03;;;19.70;99.90;;;;;;5072418;28;20032;-78
2022/06/09 08:07:41;;;;;;;8.82;6.90;;;20.00;99.90;;;;;;5054527;28;20496;-78
2022/06/09 08:10:08;;;;;;;7.43;5.55;;;19.70;99.90;;;;;;5070448;28;20110;-78
2022/06/09 08:12:34;;;;;;;7.80;5.20;;;19.70;99.90;;;;;;5088374;28;20498;-78
2022/06/09 08:15:00;;;;;;;6.88;5.40;;;19.90;99.90;;;;;;5071089;28;20124;-78
2022/06/09 08:17:25;;;;;;;7.05;4.72;;;20.10;99.90;;;;;;5072189;28;20036;-78
2022/06/09 08:19:51;;;;;;;7.60;4.47;;;20.40;99.90;;;;;;5070849;28;20041;-78
2022/06/09 08:22:17;;;;;;;7.60;4.20;;;20.50;99.90;;;;;;5070759;28;20048;-79
2022/06/09 08:24:43;;;;;;;7.22;4.40;;;20.60;99.90;;;;;;5070943;28;20418;-78
2022/06/09 08:27:08;;;;;;;4.00;2.60;;;20.40;99.90;;;;;;5072242;28;20040;-78
2022/06/09 08:29:34;;;;;;;3.92;1.98;;;20.40;99.90;;;;;;5072863;28;20037;-78
2022/06/09 08:31:59;;;;;;;6.82;2.25;;;20.70;99.90;;;;;;5072314;28;20131;-78
2022/06/09 08:34:25;;;;;;;7.70;2.83;;;20.80;99.90;;;;;;5070707;28;20040;-78
2022/06/09 08:36:52;;;;;;;4.43;2.70;;;20.50;99.90;;;;;;5070688;28;20032;-79
2022/06/09 08:39:17;;;;;;;4.80;2.65;;;20.00;99.90;;;;;;5053468;28;20044;-78
2022/06/09 08:42:13;;;;;;;2.78;2.00;;;20.00;99.90;;;;;;5070603;28;20144;-79
2022/06/09 08:44:57;;;;;;;4.78;2.13;;;20.30;99.90;;;;;;5068354;28;20044;-77
2022/06/09 08:47:22;;;;;;;5.75;2.78;;;20.70;99.90;;;;;;5071811;28;20048;-78
2022/06/09 08:49:54;;;;;;;5.13;2.00;;;20.60;99.90;;;;;;5070591;28;20063;-78
2022/06/09 08:52:29;;;;;;;2.40;1.50;;;20.40;99.90;;;;;;5070324;28;20044;-77
2022/06/09 08:54:57;;;;;;;4.68;2.10;;;20.60;99.90;;;;;;5071103;28;20277;-78
2022/06/09 08:57:32;;;;;;;3.83;1.80;;;20.30;99.90;;;;;;5071729;28;20036;-77
2022/06/09 08:59:59;;;;;;;5.03;1.70;;;20.50;99.90;;;;;;5104751;28;20044;-77
2022/06/09 09:02:37;;;;;;;3.95;1.35;;;20.30;99.90;;;;;;5074442;28;20044;-78
2022/06/09 09:05:18;;;;;;;4.15;1.52;;;20.50;99.90;;;;;;5075782;28;20426;-77
2022/06/09 09:07:48;;;;;;;5.03;1.38;;;20.50;99.90;;;;;;5074682;28;20040;-78
2022/06/09 09:10:25;;;;;;;4.63;1.20;;;20.20;99.90;;;;;;5057850;28;20288;-78
2022/06/09 09:13:03;;;;;;;3.50;1.17;;;20.50;99.90;;;;;;5074585;28;20094;-78
2022/06/09 09:15:52;;;;;;;3.90;1.33;;;20.50;99.90;;;;;;5074376;28;20040;-77
2022/06/09 09:18:35;;;;;;;3.63;1.20;;;20.60;99.90;;;;;;5074533;28;20511;-78
2022/06/09 09:21:30;;;;;;;3.42;0.90;;;20.40;99.90;;;;;;5074886;28;20054;-77
2022/06/09 09:24:00;;;;;;;4.50;1.15;;;20.70;99.90;;;;;;5091253;28;20510;-77
2022/06/09 09:26:42;;;;;;;6.53;1.10;;;21.10;99.90;;;;;;5075091;28;20126;-78
2022/06/09 09:29:35;;;;;;;4.78;1.25;;;21.10;99.90;;;;;;5110071;28;20098;-77
2022/06/09 09:32:08;;;;;;;;;;;21.30;99.90;;;;;;5057576;28;20055;-78
2022/06/09 09:34:43;;;;;;;2.45;0.73;;;21.40;99.80;;;;;;5074047;28;20366;-78
2022/06/09 09:37:25;;;;;;;4.95;1.20;;;21.60;99.90;;;;;;5057420;28;20406;-78
2022/06/09 09:40:00;;;;;;;1.70;0.85;;;21.80;99.90;;;;;;5074480;28;20059;-80
2022/06/09 09:42:30;;;;;;;5.90;1.10;;;21.50;99.90;;;;;;5074469;28;20093;-78
2022/06/09 09:44:59;;;;;;;4.85;1.10;;;21.20;99.90;;;;;;5074499;28;20540;-78
2022/06/09 09:47:26;;;;;;;4.20;0.70;;;21.40;99.90;;;;;;5073795;28;20123;-78
2022/06/09 09:49:56;;;;;;;2.55;1.00;;;21.40;99.90;;;;;;5073825;28;20036;-78
2022/06/09 09:52:42;;;;;;;5.82;0.95;;;21.10;99.90;;;;;;5090405;28;20056;-78
2022/06/09 09:55:33;;;;;;;4.05;1.10;;;20.80;99.90;;;;;;5073687;28;20051;-78
2022/06/09 09:58:28;;;;;;;5.45;1.05;;;20.90;99.90;;;;;;5073627;28;20498;-77
2022/06/09 10:01:05;;;;;;;3.88;1.30;;;20.70;99.90;;;;;;5073111;28;20086;-76
2022/06/09 10:09:24;;;;;;;3.22;1.23;;;20.40;99.90;;;;;;5107257;28;20084;-76
2022/06/09 10:11:53;;;;;;;2.67;0.88;;;20.10;99.90;;;;;;5056335;28;20041;-77
2022/06/09 10:14:32;;;;;;;7.53;1.50;;;20.00;99.90;;;;;;5070387;28;20094;-76
2022/06/09 10:16:58;;;;;;;4.63;1.00;;;20.40;99.90;;;;;;5081925;28;20041;-76
2022/06/09 10:19:28;;;;;;;4.20;1.10;;;20.40;99.90;;;;;;5072540;28;20036;-76
2022/06/09 10:22:03;;;;;;;3.35;0.90;;;20.50;99.90;;;;;;5055779;28;20414;-76
2022/06/09 10:24:42;;;;;;;6.53;1.10;;;20.30;99.90;;;;;;5056597;28;20044;-76
2022/06/09 10:27:11;;;;;;;2.10;1.13;;;20.30;99.90;;;;;;5072964;28;20052;-76
2022/06/09 10:29:53;;;;;;;4.05;1.15;;;20.40;99.90;;;;;;5072835;28;20079;-76
2022/06/09 10:32:30;;;;;;;6.72;1.23;;;20.60;99.90;;;;;;5072526;28;20072;-76
2022/06/09 10:35:06;;;;;;;5.70;1.60;;;20.80;99.90;;;;;;5072804;28;20076;-76
2022/06/09 10:37:46;;;;;;;6.50;1.73;;;20.90;99.90;;;;;;5072733;28;20036;-75
2022/06/09 10:40:14;;;;;;;5.72;1.10;;;20.60;99.90;;;;;;5072373;28;20127;-76
2022/06/09 10:42:59;;;;;;;8.07;1.10;;;20.60;99.90;;;;;;5072538;28;20044;-75
2022/06/09 10:45:28;;;;;;;4.40;1.40;;;20.80;99.90;;;;;;5072570;28;20036;-76
2022/06/09 10:57:27;;;;;;;3.92;1.35;;;20.50;99.90;;;;;;5071490;28;20532;-77
2022/06/09 11:00:09;;;;;;;5.70;1.25;;;20.50;99.90;;;;;;5069423;28;20169;-77
2022/06/09 11:02:35;;;;;;;7.03;1.17;;;20.30;99.90;;;;;;5103307;28;20123;-77
2022/06/09 11:05:03;;;;;;;1.77;0.60;;;20.20;99.90;;;;;;5055064;28;20584;-76
2022/06/09 11:07:46;;;;;;;3.45;0.98;;;20.30;99.90;;;;;;5105746;28;20048;-77
2022/06/09 11:10:21;;;;;;;7.95;1.30;;;20.20;99.90;;;;;;5068947;28;20044;-77
2022/06/09 11:13:00;;;;;;;7.28;1.50;;;20.30;99.90;;;;;;5070181;28;20498;-77
2022/06/09 11:15:37;;;;;;;3.53;1.10;;;20.40;99.90;;;;;;5069912;28;20036;-78
2022/06/09 11:18:25;;;;;;;5.28;1.00;;;20.60;99.90;;;;;;5088987;28;20036;-77
2022/06/09 11:21:16;;;;;;;4.38;0.82;;;20.50;99.60;;;;;;5071738;28;20056;-78
2022/06/09 11:24:10;;;;;;;4.82;1.50;;;20.40;99.90;;;;;;5071830;28;20036;-77
2022/06/09 11:26:48;;;;;;;;;;;20.30;98.80;;;;;;5073145;28;20119;-77
2022/06/09 11:29:58;;;;;;;6.57;1.20;;;20.40;99.90;;;;;;5071686;28;19955;-76
2022/06/09 11:32:52;;;;;;;7.35;0.90;;;20.50;99.40;;;;;;5052357;28;20053;-77
2022/06/09 11:35:28;;;;;;;3.88;0.82;;;20.50;98.30;;;;;;5071638;28;20084;-77
2022/06/09 11:38:19;;;;;;;5.90;1.17;;;20.60;98.80;;;;;;5071721;28;20578;-77
2022/06/09 11:40:56;;;;;;;4.38;0.95;;;20.30;99.30;;;;;;5070679;28;20044;-77
2022/06/09 11:44:00;;;;;;;5.32;0.90;;;20.10;99.30;;;;;;5068409;28;20056;-78
2022/06/09 11:46:33;;;;;;;2.50;1.00;;;20.10;99.90;;;;;;5070680;28;20056;-77
2022/06/09 11:49:04;;;;;;;7.60;1.10;;;20.30;99.90;;;;;;5069645;28;20044;-77
2022/06/09 11:51:32;;;;;;;5.32;1.65;;;20.50;99.90;;;;;;5068092;28;20041;-77
2022/06/09 11:54:02;;;;;;;4.90;1.48;;;20.40;99.90;;;;;;5071217;28;20486;-77
2022/06/09 11:56:45;;;;;;;8.05;1.00;;;20.40;99.00;;;;;;5071113;28;20037;-75
2022/06/09 11:59:42;;;;;;;8.57;1.30;;;20.40;99.30;;;;;;5071340;28;20505;-75
2022/06/09 12:02:36;;;;;;;4.47;1.10;;;20.50;99.90;;;;;;5070818;28;20497;-77
2022/06/09 12:05:19;;;;;;;3.33;1.00;;;20.30;99.10;;;;;;5070528;28;20093;-77
2022/06/09 12:08:05;;;;;;;8.57;1.10;;;20.20;98.20;;;;;;5068148;28;20123;-77
2022/06/09 12:10:39;;;;;;;3.53;1.23;;;20.40;99.90;;;;;;5069791;28;20082;-77
2022/06/09 12:13:23;;;;;;;3.88;1.40;;;20.30;98.20;;;;;;5070337;28;20119;-77
2022/06/09 12:16:01;;;;;;;4.55;1.02;;;20.10;98.60;;;;;;5054388;28;20048;-76
2022/06/09 12:18:37;;;;;;;8.45;1.92;;;20.10;98.20;;;;;;5071166;28;20410;-77
2022/06/09 12:21:09;;;;;;;3.30;1.00;;;20.10;99.00;;;;;;5070516;28;20036;-77
2022/06/09 12:23:40;;;;;;;4.47;1.00;;;20.20;99.70;;;;;;5070844;28;20048;-77
2022/06/09 12:26:12;;;;;;;5.57;1.55;;;20.20;98.80;;;;;;5070681;28;20040;-76
2022/06/09 12:28:49;;;;;;;5.10;0.98;;;20.30;98.50;;;;;;5070664;28;20049;-76
2022/06/09 12:31:17;;;;;;;3.40;0.85;;;20.00;97.30;;;;;;5070575;28;20409;-76
2022/06/09 12:33:53;;;;;;;3.75;0.75;;;19.90;97.20;;;;;;5070709;28;20521;-76
2022/06/09 12:36:34;;;;;;;3.92;0.80;;;19.90;97.60;;;;;;5070473;28;20063;-75
2022/06/09 12:39:04;;;;;;;6.00;1.17;;;20.10;98.00;;;;;;5087495;28;20043;-75
2022/06/09 12:41:34;;;;;;;4.88;1.02;;;20.10;99.00;;;;;;5070117;28;20032;-76
2022/06/09 12:44:18;;;;;;;6.97;1.40;;;20.30;98.20;;;;;;5070772;28;20044;-75
2022/06/09 12:46:52;;;;;;;4.80;1.13;;;20.40;99.50;;;;;;5070726;28;20050;-75
2022/06/09 12:49:24;;;;;;;4.95;1.80;;;20.20;99.50;;;;;;5104271;28;20395;-72
2022/06/09 12:51:51;;;;;;;3.42;1.33;;;20.20;99.70;;;;;;5071295;28;20090;-72
2022/06/09 12:54:30;;;;;;;4.32;1.08;;;20.40;99.90;;;;;;5070431;28;20499;-72
2022/06/09 12:57:01;;;;;;;3.53;0.80;;;20.40;99.70;;;;;;5071610;28;20048;-72
2022/06/09 12:59:39;;;;;;;7.78;1.55;;;20.50;99.10;;;;;;5070515;28;20040;-72
2022/06/09 13:02:10;;;;;;;2.40;0.85;;;20.40;98.90;;;;;;5070302;28;20090;-72
2022/06/09 13:04:44;;;;;;;3.95;0.80;;;20.40;98.10;;;;;;5070367;28;20045;-72
2022/06/09 13:07:22;;;;;;;2.38;0.70;;;20.50;98.30;;;;;;5071402;28;20124;-72
2022/06/09 13:10:19;;;;;;;2.92;0.80;;;20.50;98.70;;;;;;5070251;28;20051;-72
2022/06/09 13:12:50;;;;;;;2.88;1.00;;;20.60;98.60;;;;;;5069944;28;20044;-72
2022/06/09 13:15:33;;;;;;;5.38;1.15;;;20.70;98.70;;;;;;5070604;28;20119;-72
2022/06/09 13:18:12;;;;;;;5.85;1.27;;;20.80;99.30;;;;;;5071506;28;20399;-72
2022/06/09 13:20:41;;;;;;;5.90;1.17;;;20.80;97.70;;;;;;5071294;28;20040;-72
2022/06/09 13:23:10;;;;;;;6.15;1.08;;;21.00;98.90;;;;;;5071485;28;20040;-72